Time;durP1;ratioP1;P1;durP2;ratioP2;P2;SDS_P1;SDS_P2;PMS_P1;PMS_P2;Temp;Humidity;BMP_temperature;BMP_pressure;BME280_temperature;BME280_humidity;BME280_pressure;Samples;Min_cycle;Max_cycle;Signal;HPM_P1;HPM_P2
2022/07/11 00:02:19;;;;;;;6.60;6.10;;;18.60;99.90;;;;;;5089459;28;20174;-68
2022/07/11 00:04:47;;;;;;;6.17;5.57;;;18.60;99.90;;;;;;5072073;28;20205;-68
2022/07/11 00:07:14;;;;;;;5.37;5.00;;;18.70;99.90;;;;;;5090558;28;20178;-69
2022/07/11 00:09:40;;;;;;;6.73;6.10;;;18.60;99.90;;;;;;5092935;28;20161;-68
2022/07/11 00:12:06;;;;;;;6.37;5.83;;;18.60;99.90;;;;;;5075650;28;20189;-68
2022/07/11 00:14:32;;;;;;;5.97;5.47;;;18.50;99.90;;;;;;5070665;28;20197;-68
2022/07/11 00:16:58;;;;;;;6.03;5.43;;;18.50;99.90;;;;;;5086906;28;20188;-68
2022/07/11 00:19:23;;;;;;;6.50;5.77;;;18.40;99.90;;;;;;5092437;28;20174;-68
2022/07/11 00:21:51;;;;;;;6.37;5.80;;;18.40;99.90;;;;;;5079233;28;20204;-68
2022/07/11 00:24:19;;;;;;;6.27;5.77;;;18.30;99.90;;;;;;5071642;28;20206;-68
2022/07/11 00:26:48;;;;;;;6.53;5.67;;;18.30;99.90;;;;;;5087204;28;20268;-68
2022/07/11 00:29:15;;;;;;;6.33;5.63;;;18.30;99.90;;;;;;5091102;28;20252;-68
2022/07/11 00:31:41;;;;;;;6.53;5.93;;;18.30;99.90;;;;;;5076517;28;20178;-68
2022/07/11 00:34:06;;;;;;;6.10;5.60;;;18.20;99.90;;;;;;5070111;28;20221;-68
2022/07/11 00:36:32;;;;;;;6.50;5.97;;;18.20;99.90;;;;;;5083945;28;20178;-68
2022/07/11 00:38:58;;;;;;;6.10;5.57;;;18.20;99.90;;;;;;5092176;28;20174;-68
2022/07/11 00:41:24;;;;;;;6.60;6.20;;;18.20;99.90;;;;;;5079963;28;20182;-68
2022/07/11 00:43:53;;;;;;;6.37;5.80;;;18.10;99.90;;;;;;5071329;28;20293;-68
2022/07/11 00:46:19;;;;;;;6.87;6.27;;;18.10;99.90;;;;;;5079362;28;20544;-68
2022/07/11 00:48:44;;;;;;;9.60;6.23;;;18.00;99.90;;;;;;5090677;28;20177;-68
2022/07/11 00:51:11;;;;;;;7.40;6.70;;;18.00;99.90;;;;;;5089043;28;20177;-68
2022/07/11 00:53:38;;;;;;;7.90;6.17;;;18.00;99.90;;;;;;5091855;28;20161;-68
2022/07/11 00:56:04;;;;;;;8.43;5.70;;;18.00;99.90;;;;;;5078275;28;20247;-69
2022/07/11 00:58:30;;;;;;;6.60;5.93;;;18.00;99.90;;;;;;5071611;28;20667;-68
2022/07/11 01:00:57;;;;;;;6.73;6.10;;;18.00;99.90;;;;;;5082958;28;20536;-68
2022/07/11 01:03:22;;;;;;;7.27;6.47;;;17.90;99.90;;;;;;5090290;28;20181;-69
2022/07/11 01:05:48;;;;;;;6.20;5.70;;;17.90;99.90;;;;;;5081576;28;20209;-68
2022/07/11 01:08:14;;;;;;;6.33;5.83;;;17.90;99.90;;;;;;5070232;28;20331;-68
2022/07/11 01:10:40;;;;;;;6.50;5.97;;;17.80;99.90;;;;;;5077989;28;20169;-68
2022/07/11 01:13:07;;;;;;;7.07;6.43;;;17.80;99.90;;;;;;5090516;28;20170;-70
2022/07/11 01:15:35;;;;;;;7.73;7.13;;;17.80;99.90;;;;;;5084874;28;20194;-69
2022/07/11 01:18:01;;;;;;;9.97;6.37;;;17.70;99.90;;;;;;5070630;28;20601;-69
2022/07/11 01:20:27;;;;;;;9.43;6.90;;;17.70;99.90;;;;;;5072561;28;20188;-69
2022/07/11 01:22:56;;;;;;;7.07;6.57;;;17.60;99.90;;;;;;5071359;28;20174;-69
2022/07/11 01:25:31;;;;;;;6.63;6.03;;;17.60;99.90;;;;;;5086921;28;20216;-69
2022/07/11 01:27:59;;;;;;;7.10;6.50;;;17.60;99.90;;;;;;5091608;28;20212;-69
2022/07/11 01:30:28;;;;;;;7.43;6.17;;;17.50;99.90;;;;;;5075424;28;20188;-69
2022/07/11 01:32:55;;;;;;;6.77;6.27;;;17.50;99.90;;;;;;5071266;28;20209;-68
2022/07/11 01:35:21;;;;;;;9.23;6.30;;;17.40;99.90;;;;;;5085239;28;20205;-69
2022/07/11 01:37:47;;;;;;;8.60;7.27;;;17.40;99.90;;;;;;5091512;28;20169;-69
2022/07/11 01:40:13;;;;;;;8.83;7.30;;;17.30;99.90;;;;;;5078332;28;20539;-69
2022/07/11 01:42:38;;;;;;;8.70;7.90;;;17.20;99.90;;;;;;5069963;28;20174;-69
2022/07/11 01:45:04;;;;;;;7.63;6.83;;;17.10;99.90;;;;;;5070718;28;20205;-69
2022/07/11 01:47:30;;;;;;;7.63;6.97;;;17.00;99.90;;;;;;5071240;28;20201;-69
2022/07/11 01:49:56;;;;;;;7.50;6.80;;;16.90;99.90;;;;;;5088993;28;20177;-68
2022/07/11 01:52:22;;;;;;;7.63;7.00;;;16.80;99.90;;;;;;5089981;28;20170;-68
2022/07/11 01:54:47;;;;;;;8.07;7.33;;;16.70;99.90;;;;;;5071803;28;20552;-68
2022/07/11 01:57:13;;;;;;;11.53;7.13;;;16.60;99.90;;;;;;5069781;28;20181;-68
2022/07/11 01:59:39;;;;;;;8.43;7.67;;;16.50;99.90;;;;;;5086934;28;20174;-69
2022/07/11 02:02:05;;;;;;;9.80;6.90;;;16.40;99.90;;;;;;5091207;28;20182;-69
2022/07/11 02:04:31;;;;;;;7.93;7.27;;;16.30;99.90;;;;;;5075327;28;20293;-69
2022/07/11 02:06:56;;;;;;;7.80;7.20;;;16.20;99.90;;;;;;5070914;28;20300;-70
2022/07/11 02:09:22;;;;;;;8.33;7.63;;;16.20;99.90;;;;;;5082649;28;20239;-69
2022/07/11 02:11:48;;;;;;;8.60;7.70;;;16.10;99.90;;;;;;5089952;28;20234;-69
2022/07/11 02:14:13;;;;;;;8.57;7.97;;;16.00;99.90;;;;;;5088943;28;20198;-70
2022/07/11 02:16:40;;;;;;;11.37;8.60;;;16.00;99.90;;;;;;5091203;28;20173;-70
2022/07/11 02:19:06;;;;;;;10.97;9.60;;;15.90;99.90;;;;;;5073676;28;20182;-69
2022/07/11 02:21:32;;;;;;;9.30;8.60;;;15.90;99.90;;;;;;5070958;28;20174;-70
2022/07/11 02:23:58;;;;;;;8.27;7.63;;;15.80;99.90;;;;;;5088386;28;20238;-70
2022/07/11 02:26:23;;;;;;;11.60;8.23;;;15.80;99.90;;;;;;5094753;28;20173;-70
2022/07/11 02:28:49;;;;;;;9.77;8.80;;;15.70;99.90;;;;;;5080620;28;20182;-70
2022/07/11 02:31:15;;;;;;;10.87;8.63;;;15.70;99.90;;;;;;5074346;28;20174;-69
2022/07/11 02:33:40;;;;;;;9.17;8.17;;;15.60;99.90;;;;;;5084433;28;20753;-69
2022/07/11 02:36:07;;;;;;;9.50;8.70;;;15.60;99.90;;;;;;5093096;28;20272;-69
2022/07/11 02:38:33;;;;;;;13.67;9.23;;;15.60;99.90;;;;;;5091421;28;20673;-70
2022/07/11 02:41:00;;;;;;;9.37;8.57;;;15.60;99.90;;;;;;5093090;28;20195;-69
2022/07/11 02:43:26;;;;;;;10.67;9.73;;;15.50;99.90;;;;;;5087050;28;20519;-69
2022/07/11 02:45:51;;;;;;;13.80;8.60;;;15.50;99.90;;;;;;5072821;28;20214;-70
2022/07/11 02:48:17;;;;;;;10.30;8.60;;;15.50;99.90;;;;;;5078882;28;20193;-70
2022/07/11 02:50:43;;;;;;;11.17;9.30;;;15.40;99.90;;;;;;5093456;28;20170;-70
2022/07/11 02:53:09;;;;;;;10.53;9.73;;;15.40;99.90;;;;;;5091144;28;20170;-69
2022/07/11 02:55:34;;;;;;;11.07;10.07;;;15.30;99.90;;;;;;5093754;28;20276;-69
2022/07/11 02:58:00;;;;;;;10.57;9.60;;;15.30;99.90;;;;;;5092313;28;20722;-69
2022/07/11 03:00:26;;;;;;;10.37;9.33;;;15.30;99.90;;;;;;5073860;28;20174;-69
2022/07/11 03:02:52;;;;;;;10.93;9.70;;;15.20;99.90;;;;;;5073671;28;20170;-70
2022/07/11 03:05:17;;;;;;;12.47;10.00;;;15.20;99.90;;;;;;5073396;28;20205;-70
2022/07/11 03:07:43;;;;;;;11.03;10.23;;;15.20;99.90;;;;;;5073711;28;20659;-69
2022/07/11 03:10:09;;;;;;;10.83;9.73;;;15.20;99.90;;;;;;5072224;28;20181;-69
2022/07/11 03:12:35;;;;;;;11.00;10.10;;;15.10;99.90;;;;;;5092343;28;20169;-70
2022/07/11 03:15:01;;;;;;;10.37;9.57;;;15.10;99.90;;;;;;5092052;28;20208;-69
2022/07/11 03:17:26;;;;;;;10.90;9.63;;;15.10;99.90;;;;;;5076350;28;20185;-69
2022/07/11 03:19:53;;;;;;;11.87;9.43;;;15.10;99.90;;;;;;5072431;28;20522;-69
2022/07/11 03:22:18;;;;;;;10.93;9.93;;;15.10;99.90;;;;;;5088364;28;20185;-69
2022/07/11 03:24:44;;;;;;;11.40;9.73;;;15.10;99.90;;;;;;5091304;28;20304;-70
2022/07/11 03:27:10;;;;;;;12.07;10.17;;;15.00;99.90;;;;;;5079934;28;20178;-69
2022/07/11 03:29:36;;;;;;;11.30;10.10;;;15.00;99.90;;;;;;5071967;28;20197;-70
2022/07/11 03:32:02;;;;;;;12.30;10.33;;;15.00;99.90;;;;;;5074266;28;20647;-69
2022/07/11 03:34:28;;;;;;;11.23;10.00;;;15.00;99.90;;;;;;5071608;28;20714;-69
2022/07/11 03:36:54;;;;;;;12.67;9.83;;;15.00;99.90;;;;;;5081437;28;20182;-70
2022/07/11 03:39:23;;;;;;;10.83;9.63;;;15.00;99.90;;;;;;5091957;28;20707;-69
2022/07/11 03:41:49;;;;;;;11.43;10.23;;;14.90;99.90;;;;;;5084619;28;20220;-69
2022/07/11 03:44:14;;;;;;;10.33;9.33;;;15.00;99.90;;;;;;5070469;28;20214;-70
2022/07/11 03:46:40;;;;;;;10.87;9.97;;;15.00;99.90;;;;;;5079486;28;20235;-69
2022/07/11 03:49:05;;;;;;;11.87;9.87;;;15.00;99.90;;;;;;5092996;28;20256;-69
2022/07/11 03:51:31;;;;;;;11.67;10.43;;;15.00;99.90;;;;;;5086634;28;20262;-70
2022/07/11 03:53:57;;;;;;;11.67;10.53;;;15.00;99.90;;;;;;5070935;28;20273;-69
2022/07/11 03:56:22;;;;;;;11.33;10.23;;;14.90;99.90;;;;;;5075374;28;20189;-70
2022/07/11 03:58:50;;;;;;;13.10;10.27;;;15.00;99.90;;;;;;5092912;28;20170;-70
2022/07/11 04:01:16;;;;;;;11.93;10.53;;;15.00;99.90;;;;;;5073422;28;20185;-69
2022/07/11 04:03:42;;;;;;;11.13;9.63;;;15.00;99.90;;;;;;5070884;28;20174;-69
2022/07/11 04:06:07;;;;;;;15.00;10.23;;;15.00;99.90;;;;;;5089388;28;20231;-69
2022/07/11 04:08:33;;;;;;;12.00;10.47;;;15.00;99.90;;;;;;5092742;28;20256;-70
2022/07/11 04:10:58;;;;;;;10.90;10.00;;;15.00;99.90;;;;;;5077057;28;20204;-70
2022/07/11 04:13:24;;;;;;;11.30;10.23;;;15.00;99.90;;;;;;5070821;28;20553;-70
2022/07/11 04:15:50;;;;;;;11.80;10.17;;;15.00;99.90;;;;;;5084443;28;20200;-69
2022/07/11 04:18:16;;;;;;;12.97;10.17;;;15.00;99.90;;;;;;5091107;28;20205;-69
2022/07/11 04:20:41;;;;;;;11.63;9.80;;;15.10;99.90;;;;;;5080370;28;20655;-70
2022/07/11 04:23:07;;;;;;;16.43;10.10;;;15.20;99.90;;;;;;5072159;28;20166;-69
2022/07/11 04:25:34;;;;;;;11.53;9.50;;;15.30;99.90;;;;;;5080257;28;20712;-70
2022/07/11 04:28:00;;;;;;;12.23;9.83;;;15.40;99.90;;;;;;5082719;28;20481;-69
2022/07/11 04:30:26;;;;;;;11.93;10.83;;;15.50;99.90;;;;;;5070900;28;20193;-70
2022/07/11 04:32:52;;;;;;;11.73;10.17;;;15.50;99.90;;;;;;5078263;28;20634;-70
2022/07/11 04:35:17;;;;;;;11.40;10.10;;;15.60;99.90;;;;;;5089104;22;20290;-67
2022/07/11 04:37:44;;;;;;;9.87;9.10;;;15.80;99.90;;;;;;5039376;28;20164;-68
2022/07/11 04:40:10;;;;;;;11.73;9.20;;;15.90;99.90;;;;;;5024669;28;20259;-67
2022/07/11 04:42:35;;;;;;;10.20;9.20;;;16.00;99.90;;;;;;5026677;28;20175;-68
2022/07/11 04:45:01;;;;;;;12.27;8.97;;;16.10;99.90;;;;;;5033292;28;20272;-67
2022/07/11 04:47:26;;;;;;;10.27;8.97;;;16.10;99.90;;;;;;5033875;28;20172;-67
2022/07/11 04:49:52;;;;;;;10.27;9.37;;;16.20;99.90;;;;;;5012864;28;20184;-68
2022/07/11 04:52:18;;;;;;;10.17;8.63;;;16.20;99.90;;;;;;5020145;28;20180;-67
2022/07/11 04:54:43;;;;;;;9.80;9.03;;;16.20;99.90;;;;;;5032308;28;20188;-66
2022/07/11 04:57:09;;;;;;;11.47;9.13;;;16.20;99.90;;;;;;5013430;28;20270;-66
2022/07/11 04:59:35;;;;;;;9.60;8.90;;;16.20;99.90;;;;;;5013130;28;20178;-65
2022/07/11 05:02:00;;;;;;;9.47;8.57;;;16.30;99.90;;;;;;5029495;28;20179;-67
2022/07/11 05:04:26;;;;;;;9.30;8.60;;;16.40;99.90;;;;;;5031718;28;20203;-67
2022/07/11 05:06:51;;;;;;;9.10;8.30;;;16.60;99.90;;;;;;5015974;28;20271;-66
2022/07/11 05:09:17;;;;;;;9.87;8.10;;;16.70;99.90;;;;;;5011850;28;20176;-67
2022/07/11 05:11:43;;;;;;;8.37;7.67;;;16.80;99.90;;;;;;5025539;28;20656;-66
2022/07/11 05:14:09;;;;;;;7.50;6.90;;;16.90;99.90;;;;;;5031057;28;20250;-66
2022/07/11 05:16:34;;;;;;;7.10;6.40;;;17.00;99.90;;;;;;5019166;28;20716;-65
2022/07/11 05:19:00;;;;;;;9.17;7.00;;;17.10;99.90;;;;;;5011856;28;20183;-66
2022/07/11 05:21:25;;;;;;;7.60;7.00;;;17.20;99.90;;;;;;5021957;28;20211;-67
2022/07/11 05:23:51;;;;;;;7.57;6.87;;;17.30;99.90;;;;;;5031134;28;20253;-65
2022/07/11 05:26:17;;;;;;;7.27;6.77;;;17.30;99.90;;;;;;5022308;28;20200;-66
2022/07/11 05:28:43;;;;;;;7.93;7.00;;;17.40;99.90;;;;;;5011801;28;20214;-66
2022/07/11 05:31:08;;;;;;;7.53;6.87;;;17.40;99.90;;;;;;5018278;28;20538;-66
2022/07/11 05:33:34;;;;;;;6.70;6.10;;;17.50;99.90;;;;;;5018092;28;20180;-67
2022/07/11 05:36:01;;;;;;;7.63;6.93;;;17.60;99.90;;;;;;5016613;28;20702;-67
2022/07/11 05:38:27;;;;;;;6.67;6.17;;;17.70;99.90;;;;;;5031307;28;20167;-66
2022/07/11 05:40:53;;;;;;;6.80;6.23;;;17.70;99.90;;;;;;5027956;28;20191;-66
2022/07/11 05:43:19;;;;;;;7.47;6.87;;;17.80;99.90;;;;;;5011731;28;20172;-66
2022/07/11 05:45:44;;;;;;;6.90;6.20;;;17.80;99.90;;;;;;5012696;28;20210;-66
2022/07/11 05:48:10;;;;;;;7.60;6.90;;;17.70;99.90;;;;;;5031568;28;20179;-66
2022/07/11 05:50:36;;;;;;;7.27;6.67;;;17.80;99.90;;;;;;5030712;28;20179;-65
2022/07/11 05:53:02;;;;;;;6.53;6.13;;;17.90;99.90;;;;;;5011496;28;20168;-65
2022/07/11 05:55:28;;;;;;;7.20;6.50;;;18.00;99.90;;;;;;5024990;28;20292;-65
2022/07/11 05:57:54;;;;;;;6.73;6.23;;;18.10;99.90;;;;;;5033585;28;20182;-66
2022/07/11 06:00:22;;;;;;;6.40;5.90;;;18.10;99.90;;;;;;5017445;28;20188;-66
2022/07/11 06:02:48;;;;;;;7.07;6.67;;;18.10;99.90;;;;;;5013891;28;20722;-66
2022/07/11 06:05:14;;;;;;;6.87;6.17;;;18.20;99.90;;;;;;5015854;28;20290;-66
2022/07/11 06:10:23;;;;;;;8.20;6.37;;;18.20;99.90;;;;;;5031525;28;20233;-67
2022/07/11 06:12:49;;;;;;;7.50;6.80;;;18.30;99.90;;;;;;5034609;28;20195;-66
2022/07/11 06:15:15;;;;;;;7.30;6.70;;;18.30;99.90;;;;;;5018695;28;20208;-67
2022/07/11 06:17:40;;;;;;;8.07;6.73;;;18.20;99.90;;;;;;5014892;28;20202;-66
2022/07/11 06:20:08;;;;;;;7.10;6.50;;;18.30;99.90;;;;;;5027772;28;20184;-67
2022/07/11 06:22:33;;;;;;;8.20;7.57;;;18.40;99.90;;;;;;5033228;28;20652;-67
2022/07/11 06:24:59;;;;;;;7.43;6.70;;;18.50;99.90;;;;;;5024518;28;20207;-67
2022/07/11 06:27:24;;;;;;;7.00;6.30;;;18.60;99.90;;;;;;5026043;28;20183;-67
2022/07/11 06:29:50;;;;;;;9.60;6.67;;;18.60;99.90;;;;;;5029254;28;20210;-66
2022/07/11 06:32:16;;;;;;;8.30;7.53;;;18.60;99.90;;;;;;5028347;28;20234;-67
2022/07/11 06:34:42;;;;;;;8.10;7.30;;;18.70;99.90;;;;;;5014054;28;20680;-67
2022/07/11 06:37:07;;;;;;;7.20;6.60;;;18.70;99.90;;;;;;5018089;28;20286;-67
2022/07/11 06:39:33;;;;;;;7.73;7.03;;;18.70;99.90;;;;;;5034108;28;20168;-66
2022/07/11 06:41:58;;;;;;;7.33;6.73;;;18.80;99.90;;;;;;5032028;28;20183;-67
2022/07/11 06:44:24;;;;;;;7.50;6.80;;;18.90;99.90;;;;;;5012972;28;20203;-66
2022/07/11 06:46:49;;;;;;;6.40;6.00;;;19.00;99.90;;;;;;5014208;28;20638;-67
2022/07/11 06:49:15;;;;;;;7.07;6.47;;;19.10;99.90;;;;;;5013999;28;20187;-66
2022/07/11 06:51:40;;;;;;;6.17;5.77;;;19.20;99.90;;;;;;5014271;28;20168;-66
2022/07/11 06:54:06;;;;;;;8.20;7.40;;;19.30;99.90;;;;;;5013633;28;20222;-66
2022/07/11 06:56:32;;;;;;;6.67;6.13;;;19.40;99.90;;;;;;5014003;28;20180;-66
2022/07/11 06:58:58;;;;;;;8.33;7.50;;;19.30;99.90;;;;;;5014212;28;20184;-67
2022/07/11 07:01:24;;;;;;;8.43;7.63;;;19.40;99.90;;;;;;5013791;28;20202;-66
2022/07/11 07:03:49;;;;;;;10.90;9.93;;;19.40;99.90;;;;;;5025561;28;20211;-66
2022/07/11 07:06:15;;;;;;;10.60;9.50;;;19.40;99.90;;;;;;5013561;28;20188;-67
2022/07/11 07:08:40;;;;;;;10.73;9.50;;;19.50;99.90;;;;;;5013983;28;20215;-67
2022/07/11 07:11:06;;;;;;;8.67;8.17;;;19.60;99.90;;;;;;5027559;28;20176;-66
2022/07/11 07:13:31;;;;;;;8.00;7.30;;;19.60;99.90;;;;;;5033126;28;20580;-66
2022/07/11 07:15:57;;;;;;;8.50;7.73;;;19.60;99.90;;;;;;5020307;28;20203;-67
2022/07/11 07:18:24;;;;;;;6.40;5.90;;;19.70;99.90;;;;;;5018164;28;20250;-67
2022/07/11 07:20:50;;;;;;;7.47;6.87;;;19.80;99.90;;;;;;5033425;28;20168;-67
2022/07/11 07:23:16;;;;;;;8.53;7.93;;;19.90;99.90;;;;;;5016708;28;20172;-67
2022/07/11 07:25:42;;;;;;;9.53;8.73;;;20.00;99.90;;;;;;5032954;28;20203;-66
2022/07/11 07:28:08;;;;;;;7.40;6.93;;;20.00;99.90;;;;;;5031155;28;20176;-66
2022/07/11 07:30:34;;;;;;;9.43;8.60;;;19.90;99.90;;;;;;5013330;28;20199;-67
2022/07/11 07:33:00;;;;;;;8.03;7.33;;;19.70;99.90;;;;;;5013544;28;20199;-66
2022/07/11 07:35:26;;;;;;;9.10;8.50;;;19.70;99.90;;;;;;5032480;28;20608;-66
2022/07/11 07:37:52;;;;;;;8.20;7.40;;;19.80;99.90;;;;;;5033130;28;20175;-66
2022/07/11 07:40:18;;;;;;;7.50;7.00;;;19.80;99.90;;;;;;5011879;28;20218;-66
2022/07/11 07:42:44;;;;;;;7.23;6.60;;;19.80;99.90;;;;;;5013247;28;20181;-70
2022/07/11 07:45:10;;;;;;;7.17;6.63;;;19.70;99.90;;;;;;5028710;28;20203;-67
2022/07/11 07:47:36;;;;;;;7.77;7.33;;;19.60;99.90;;;;;;5017938;28;20177;-67
2022/07/11 07:50:02;;;;;;;7.90;7.30;;;19.60;99.90;;;;;;5013042;28;20260;-67
2022/07/11 07:52:27;;;;;;;7.10;6.50;;;19.60;99.90;;;;;;5025626;28;20529;-67
2022/07/11 07:54:53;;;;;;;7.70;7.30;;;19.60;99.90;;;;;;5032456;28;20282;-66
2022/07/11 07:57:19;;;;;;;6.43;5.93;;;19.60;99.90;;;;;;5021015;28;20175;-67
2022/07/11 07:59:44;;;;;;;6.50;6.10;;;19.50;99.90;;;;;;5012817;28;20626;-68
2022/07/11 08:02:10;;;;;;;6.67;6.27;;;19.40;99.90;;;;;;5022263;28;20187;-67
2022/07/11 08:04:36;;;;;;;6.83;6.00;;;19.40;99.90;;;;;;5032084;28;20211;-66
2022/07/11 08:07:02;;;;;;;5.77;5.37;;;19.40;99.90;;;;;;5024358;28;20557;-66
2022/07/11 08:09:28;;;;;;;6.60;6.20;;;19.50;99.90;;;;;;5012581;28;20172;-66
2022/07/11 08:11:54;;;;;;;7.77;5.73;;;19.50;99.90;;;;;;5018712;28;20183;-66
2022/07/11 08:14:20;;;;;;;7.67;5.93;;;19.30;99.90;;;;;;5027620;28;20206;-66
2022/07/11 08:16:46;;;;;;;9.10;6.70;;;19.50;99.90;;;;;;5012597;28;20179;-66
2022/07/11 08:19:11;;;;;;;8.23;7.60;;;19.40;99.90;;;;;;5014294;28;20659;-66
2022/07/11 08:21:37;;;;;;;7.70;7.07;;;19.40;99.90;;;;;;5031956;28;20651;-67
2022/07/11 08:24:03;;;;;;;7.37;6.77;;;19.50;99.90;;;;;;5025583;28;20210;-67
2022/07/11 08:26:29;;;;;;;6.83;5.70;;;19.60;99.90;;;;;;5012281;28;20555;-67
2022/07/11 08:28:55;;;;;;;7.20;6.57;;;19.70;99.90;;;;;;5016563;28;20322;-66
2022/07/11 08:31:20;;;;;;;6.63;6.03;;;19.80;99.90;;;;;;5032258;28;20271;-67
2022/07/11 08:33:46;;;;;;;6.27;5.77;;;19.90;99.90;;;;;;5028897;28;20565;-66
2022/07/11 08:36:12;;;;;;;6.60;6.20;;;20.10;99.90;;;;;;5011958;28;20208;-67
2022/07/11 08:38:39;;;;;;;6.33;5.83;;;20.40;99.90;;;;;;5017261;28;20178;-67
2022/07/11 08:41:05;;;;;;;6.90;6.30;;;20.50;99.90;;;;;;5031789;28;20163;-67
2022/07/11 08:43:32;;;;;;;7.20;6.57;;;20.80;99.90;;;;;;5017891;28;20195;-67
2022/07/11 08:45:59;;;;;;;6.97;6.47;;;21.00;99.90;;;;;;5011979;28;20210;-67
2022/07/11 08:48:25;;;;;;;5.95;5.40;;;21.70;99.90;;;;;;5028937;28;20211;-66
2022/07/11 08:50:51;;;;;;;4.72;4.43;;;22.50;99.90;;;;;;5031206;28;20588;-68
2022/07/11 08:53:17;;;;;;;5.55;4.70;;;23.30;99.90;;;;;;5015564;28;20190;-67
2022/07/11 08:55:43;;;;;;;4.75;4.45;;;23.80;99.90;;;;;;5011708;28;20196;-67
2022/07/11 08:58:09;;;;;;;4.50;4.20;;;24.10;99.90;;;;;;5025519;28;20187;-67
2022/07/11 09:00:38;;;;;;;5.70;5.30;;;23.40;99.90;;;;;;5031671;28;20537;-66
2022/07/11 09:03:05;;;;;;;4.72;4.43;;;23.40;99.90;;;;;;5018476;28;20230;-67
2022/07/11 09:05:31;;;;;;;4.90;4.60;;;23.20;99.90;;;;;;5011300;28;20349;-67
2022/07/11 09:07:57;;;;;;;5.10;4.80;;;23.00;99.90;;;;;;5022978;28;20175;-67
2022/07/11 09:10:23;;;;;;;7.65;7.25;;;23.00;99.90;;;;;;5027929;28;20175;-67
2022/07/11 09:12:59;;;;;;;5.15;4.85;;;23.30;99.90;;;;;;5011605;28;20565;-67
2022/07/11 09:15:36;;;;;;;5.75;5.28;;;23.10;99.90;;;;;;5013853;28;20203;-67
2022/07/11 09:18:03;;;;;;;4.90;4.60;;;23.10;99.90;;;;;;5031481;28;20214;-66
2022/07/11 09:25:19;;;;;;;4.80;4.50;;;23.30;99.90;;;;;;5028365;28;20227;-67
2022/07/11 09:26:18;;;;;;;5.38;5.05;;;23.60;99.90;;;;;;5020404;28;20718;-67
2022/07/11 09:28:58;;;;;;;5.50;5.03;;;23.30;99.90;;;;;;5032036;28;20258;-68
2022/07/11 09:31:26;;;;;;;4.95;4.53;;;23.20;99.90;;;;;;5021967;28;20644;-69
2022/07/11 09:34:09;;;;;;;4.82;4.47;;;23.40;99.90;;;;;;5015664;28;20175;-68
2022/07/11 09:36:35;;;;;;;4.60;4.30;;;23.50;99.90;;;;;;5025830;28;20191;-67
2022/07/11 09:39:03;;;;;;;4.90;4.47;;;23.60;99.90;;;;;;5027530;28;20188;-67
2022/07/11 09:41:35;;;;;;;5.15;4.25;;;23.70;99.90;;;;;;5015901;28;20172;-67
2022/07/11 09:44:09;;;;;;;4.47;4.28;;;23.70;99.90;;;;;;5023327;28;20179;-68
2022/07/11 09:46:36;;;;;;;4.10;3.80;;;23.70;99.90;;;;;;5035270;28;20233;-67
2022/07/11 09:49:02;;;;;;;5.68;4.25;;;23.90;99.90;;;;;;5028220;28;20177;-68
2022/07/11 09:51:28;;;;;;;3.78;3.55;;;23.90;99.90;;;;;;5015625;28;20176;-68
2022/07/11 09:53:55;;;;;;;4.20;3.85;;;23.60;99.90;;;;;;5020900;28;20172;-68
2022/07/11 09:56:34;;;;;;;4.72;4.43;;;23.50;99.90;;;;;;5035503;28;20191;-67
2022/07/11 09:59:04;;;;;;;4.65;4.32;;;23.10;99.90;;;;;;5029245;28;20176;-69
2022/07/11 10:01:30;;;;;;;6.85;6.40;;;22.90;99.90;;;;;;5015299;28;20547;-68
2022/07/11 10:03:56;;;;;;;4.55;4.25;;;23.00;99.90;;;;;;5016104;28;20172;-68
2022/07/11 10:06:23;;;;;;;4.50;4.20;;;23.00;99.90;;;;;;5014810;28;20192;-69
2022/07/11 10:08:51;;;;;;;5.13;4.80;;;23.00;99.90;;;;;;5017472;28;20197;-68
2022/07/11 10:11:16;;;;;;;5.97;5.67;;;23.10;99.90;;;;;;5034231;28;20175;-68
2022/07/11 10:13:43;;;;;;;6.80;6.50;;;23.10;99.90;;;;;;5033890;28;20237;-68
2022/07/11 10:16:13;;;;;;;8.05;7.65;;;23.20;99.90;;;;;;5016210;28;20258;-68
2022/07/11 10:18:48;;;;;;;6.40;6.10;;;23.20;99.90;;;;;;5016731;28;20259;-68
2022/07/11 10:21:22;;;;;;;5.82;5.53;;;23.20;99.90;;;;;;5034792;28;20179;-67
2022/07/11 10:24:02;;;;;;;4.05;3.75;;;23.00;99.90;;;;;;5030991;28;20183;-67
2022/07/11 10:26:42;;;;;;;5.83;5.53;;;22.90;99.90;;;;;;5015270;28;20183;-68
2022/07/11 10:29:17;;;;;;;6.38;6.07;;;23.00;99.90;;;;;;5027989;28;20180;-67
2022/07/11 10:31:42;;;;;;;5.40;5.10;;;23.20;99.90;;;;;;5035306;28;20178;-68
2022/07/11 10:34:18;;;;;;;5.65;5.35;;;23.40;99.90;;;;;;5022406;28;20173;-67
2022/07/11 10:36:45;;;;;;;7.80;7.10;;;23.20;99.90;;;;;;5016882;28;20643;-67
2022/07/11 10:39:29;;;;;;;5.17;4.87;;;23.10;99.90;;;;;;5034092;28;20172;-67
2022/07/11 10:41:59;;;;;;;6.93;6.63;;;22.90;99.90;;;;;;5031098;28;20225;-67
2022/07/11 10:44:26;;;;;;;7.20;6.80;;;22.90;99.90;;;;;;5013218;28;20580;-67
2022/07/11 10:46:53;;;;;;;6.60;6.20;;;23.10;99.90;;;;;;5026426;28;20183;-68
2022/07/11 10:49:43;;;;;;;5.05;4.82;;;23.10;99.90;;;;;;5033797;28;20172;-68
2022/07/11 10:52:08;;;;;;;4.97;4.63;;;22.90;99.90;;;;;;5032439;28;20557;-67
2022/07/11 10:54:56;;;;;;;6.60;6.20;;;22.90;99.90;;;;;;5033422;28;20195;-67
2022/07/11 10:57:35;;;;;;;4.72;4.53;;;23.10;99.90;;;;;;5016614;28;20278;-67
2022/07/11 11:00:02;;;;;;;6.50;6.00;;;23.10;99.90;;;;;;5014143;28;20263;-67
2022/07/11 11:02:29;;;;;;;8.32;5.38;;;23.10;99.90;;;;;;5029043;28;20645;-67
2022/07/11 11:05:00;;;;;;;4.70;4.50;;;23.00;99.90;;;;;;5033164;28;20231;-67
2022/07/11 11:07:35;;;;;;;5.28;4.93;;;22.70;99.90;;;;;;5022274;28;20246;-67
2022/07/11 11:10:04;;;;;;;7.17;6.80;;;22.50;99.90;;;;;;5013835;28;20254;-67
2022/07/11 11:13:11;;;;;;;6.30;5.70;;;22.40;99.90;;;;;;5012144;28;20207;-67
2022/07/11 11:15:41;;;;;;;7.40;7.00;;;22.10;99.90;;;;;;5031286;28;20561;-67
2022/07/11 11:18:25;;;;;;;6.33;5.93;;;22.00;99.90;;;;;;5033417;28;20171;-67
2022/07/11 11:21:02;;;;;;;5.90;5.60;;;21.90;99.90;;;;;;4994150;28;20420;-67
2022/07/11 11:23:33;;;;;;;4.60;4.40;;;22.10;99.90;;;;;;4994865;28;20184;-66
2022/07/11 11:26:13;;;;;;;6.93;6.33;;;22.10;99.90;;;;;;5033442;28;20215;-68
2022/07/11 11:28:55;;;;;;;8.87;6.87;;;22.20;99.90;;;;;;5030958;28;20260;-68
2022/07/11 11:31:20;;;;;;;6.60;6.30;;;22.30;99.90;;;;;;4993745;28;20565;-66
2022/07/11 11:33:47;;;;;;;8.27;7.90;;;22.60;99.90;;;;;;4997772;28;20168;-67
2022/07/11 11:36:16;;;;;;;7.37;6.80;;;22.90;99.90;;;;;;5033116;28;20286;-68
2022/07/11 11:38:42;;;;;;;5.60;5.17;;;23.40;99.90;;;;;;5014380;28;20184;-68
2022/07/11 11:41:08;;;;;;;4.65;4.38;;;23.70;99.90;;;;;;5031890;28;20172;-69
2022/07/11 11:43:35;;;;;;;4.85;4.55;;;24.00;99.90;;;;;;5033155;28;20175;-67
2022/07/11 11:46:04;;;;;;;4.70;4.30;;;24.20;99.90;;;;;;5012795;28;20224;-69
2022/07/11 11:48:30;;;;;;;3.50;3.40;;;24.30;99.90;;;;;;5013306;28;20199;-68
2022/07/11 11:51:16;;;;;;;4.63;3.20;;;24.60;99.90;;;;;;5031959;28;20180;-68
2022/07/11 11:53:54;;;;;;;6.03;3.60;;;25.20;99.90;;;;;;5018390;28;20208;-69
2022/07/11 11:56:30;;;;;;;4.40;4.10;;;25.70;99.90;;;;;;5012726;28;20570;-68
2022/07/11 11:58:58;;;;;;;3.42;3.22;;;26.00;99.90;;;;;;5013759;28;20190;-69
2022/07/11 12:01:29;;;;;;;3.97;3.67;;;26.20;99.90;;;;;;5012921;28;20479;-68
2022/07/11 12:03:59;;;;;;;3.97;3.78;;;26.40;99.90;;;;;;5011116;28;20275;-67
2022/07/11 12:06:26;;;;;;;4.20;3.90;;;26.40;99.90;;;;;;5012893;28;20207;-71
2022/07/11 12:09:13;;;;;;;5.07;4.65;;;26.50;99.90;;;;;;5013175;28;20187;-66
2022/07/11 12:11:40;;;;;;;5.20;4.90;;;26.30;99.90;;;;;;5012462;28;20587;-68
2022/07/11 12:14:08;;;;;;;4.97;4.60;;;25.80;99.90;;;;;;5012259;28;20238;-67
2022/07/11 12:16:41;;;;;;;4.75;4.45;;;25.60;99.90;;;;;;5012821;28;20173;-68
2022/07/11 12:19:12;;;;;;;5.43;5.00;;;25.50;99.90;;;;;;5031156;28;20203;-67
2022/07/11 12:21:40;;;;;;;4.32;3.92;;;25.40;99.90;;;;;;5032333;28;20164;-67
2022/07/11 12:24:08;;;;;;;5.10;4.80;;;25.30;99.90;;;;;;5030066;28;20221;-68
2022/07/11 12:26:37;;;;;;;4.45;3.88;;;25.10;99.90;;;;;;5032865;28;20578;-69
2022/07/11 12:29:05;;;;;;;3.90;3.70;;;24.90;99.90;;;;;;5016352;28;20219;-69
2022/07/11 12:31:52;;;;;;;4.85;3.78;;;24.60;99.90;;;;;;5014318;28;20543;-68
2022/07/11 12:34:45;;;;;;;3.70;3.50;;;24.50;99.90;;;;;;5031793;28;20172;-68
2022/07/11 12:37:20;;;;;;;3.67;3.47;;;24.40;99.90;;;;;;5031414;28;20192;-68
2022/07/11 12:39:56;;;;;;;4.57;4.38;;;24.20;99.90;;;;;;5013203;28;20246;-69
2022/07/11 12:42:33;;;;;;;4.15;3.95;;;24.10;99.90;;;;;;5013347;28;20246;-68
2022/07/11 12:45:09;;;;;;;3.60;3.50;;;24.00;99.90;;;;;;5030617;28;20203;-67
2022/07/11 12:47:42;;;;;;;4.07;3.83;;;23.80;99.90;;;;;;5012693;28;20229;-67
2022/07/11 12:50:16;;;;;;;4.22;3.92;;;23.70;99.90;;;;;;5012037;28;20259;-68
2022/07/11 12:52:47;;;;;;;4.63;4.43;;;23.70;99.90;;;;;;5012264;28;20231;-68